Time;durP1;ratioP1;P1;durP2;ratioP2;P2;SDS_P1;SDS_P2;PMS_P1;PMS_P2;Temp;Humidity;BMP_temperature;BMP_pressure;BME280_temperature;BME280_humidity;BME280_pressure;Samples;Min_cycle;Max_cycle;Signal;HPM_P1;HPM_P2
2023/04/08 00:01:44;;;;;;;;;;;;;;;-142.25;100.00;58004.16;4918598;29;20022;-67
2023/04/08 00:04:13;;;;;;;;;;;;;;;-142.25;100.00;58004.16;4916347;29;20417;-67
2023/04/08 00:06:38;;;;;;;;;;;;;;;-142.25;100.00;58004.16;4916883;29;19927;-67
2023/04/08 00:09:04;;;;;;;;;;;;;;;-142.25;100.00;58004.16;4916788;29;19987;-68
2023/04/08 00:11:29;;;;;;;;;;;;;;;-142.25;100.00;58004.16;4915976;29;19933;-67
2023/04/08 00:13:55;;;;;;;;;;;;;;;-142.25;100.00;58004.16;4916241;29;20531;-67
2023/04/08 00:16:21;;;;;;;;;;;;;;;-142.25;100.00;58004.16;4916177;29;20560;-67
2023/04/08 00:18:48;;;;;;;;;;;;;;;-142.25;100.00;58004.16;4915540;29;20454;-68
2023/04/08 00:21:16;;;;;;;;;;;;;;;-142.25;100.00;58004.16;4915998;29;19937;-69
2023/04/08 00:23:42;;;;;;;;;;;;;;;-142.25;100.00;58004.16;4915523;29;19923;-67
2023/04/08 00:26:08;;;;;;;;;;;;;;;-142.25;100.00;58004.16;4916136;29;20347;-67
2023/04/08 00:28:33;;;;;;;;;;;;;;;-142.25;100.00;58004.16;4916907;29;20540;-67
2023/04/08 00:30:59;;;;;;;;;;;;;;;-142.25;100.00;58004.16;4915676;29;19923;-67
2023/04/08 00:33:24;;;;;;;;;;;;;;;-142.25;100.00;58004.16;4915438;29;20290;-67
2023/04/08 00:35:50;;;;;;;;;;;;;;;-142.25;100.00;58004.16;4930783;29;20006;-67
2023/04/08 00:38:16;;;;;;;;;;;;;;;-142.25;100.00;58004.16;4914516;29;19927;-67
2023/04/08 00:40:41;;;;;;;;;;;;;;;-142.25;100.00;58004.16;4914703;28;20434;-67
2023/04/08 00:43:07;;;;;;;;;;;;;;;-142.25;100.00;58004.16;4912899;29;19998;-67
2023/04/08 00:45:32;;;;;;;;;;;;;;;-142.25;100.00;58004.16;4913011;29;19931;-67
2023/04/08 00:47:58;;;;;;;;;;;;;;;-142.25;100.00;58004.16;4928553;29;19930;-67
2023/04/08 00:50:23;;;;;;;;;;;;;;;-142.25;100.00;58004.16;4912830;29;19923;-67
2023/04/08 00:52:49;;;;;;;;;;;;;;;-142.25;100.00;58004.16;4912640;29;19934;-67
2023/04/08 00:55:14;;;;;;;;;;;;;;;-142.25;100.00;58004.16;4913675;29;20314;-66
2023/04/08 00:57:40;;;;;;;;;;;;;;;-142.25;100.00;58004.16;4914537;29;20373;-67
2023/04/08 01:00:08;;;;;;;;;;;;;;;-142.25;100.00;58004.16;4928048;29;19933;-67
2023/04/08 01:02:52;;;;;;;;;;;;;;;-142.25;100.00;58004.16;4912665;29;19930;-67
2023/04/08 01:05:41;;;;;;;;;;;;;;;-142.25;100.00;58004.16;4916000;29;20398;-67
2023/04/08 01:08:09;;;;;;;;;;;;;;;-142.25;100.00;58004.16;4914384;29;20376;-67
2023/04/08 01:10:36;;;;;;;;;;;;;;;-142.25;100.00;58004.16;4931766;29;20381;-67
2023/04/08 01:13:08;;;;;;;;;;;;;;;-142.25;100.00;58004.16;4915381;29;19957;-66
2023/04/08 01:15:35;;;;;;;;;;;;;;;-142.25;100.00;58004.16;4916435;29;20616;-67
2023/04/08 01:18:04;;;;;;;;;;;;;;;-142.25;100.00;58004.16;4913071;29;20156;-66
2023/04/08 01:20:31;;;;;;;;;;;;;;;-142.25;100.00;58004.16;4924870;29;19922;-67
2023/04/08 01:22:57;;;;;;;;;;;;;;;-142.25;100.00;58004.16;4913403;29;20445;-66
2023/04/08 01:25:25;;;;;;;;;;;;;;;-142.25;100.00;58004.16;4912272;29;19930;-67
2023/04/08 01:27:51;;;;;;;;;;;;;;;-142.25;100.00;58004.16;4911679;29;20492;-66
2023/04/08 01:30:18;;;;;;;;;;;;;;;-142.25;100.00;58004.16;4914528;29;20026;-67
2023/04/08 01:32:45;;;;;;;;;;;;;;;-142.25;100.00;58004.16;4928200;29;19931;-67
2023/04/08 01:35:11;;;;;;;;;;;;;;;-142.25;100.00;58004.16;4915537;29;19923;-68
2023/04/08 01:37:37;;;;;;;;;;;;;;;-142.25;100.00;58004.16;4913913;29;19934;-66
2023/04/08 01:40:04;;;;;;;;;;;;;;;-142.25;100.00;58004.16;4913507;29;19936;-67
2023/04/08 01:42:31;;;;;;;;;;;;;;;-142.25;100.00;58004.16;4913149;29;19922;-67
2023/04/08 01:44:58;;;;;;;;;;;;;;;-142.25;100.00;58004.16;4913397;29;19954;-65
2023/04/08 01:47:24;;;;;;;;;;;;;;;-142.25;100.00;58004.16;4912662;29;19930;-65
2023/04/08 01:49:51;;;;;;;;;;;;;;;-142.25;100.00;58004.16;4915943;29;20002;-66
2023/04/08 01:52:18;;;;;;;;;;;;;;;-142.25;100.00;58004.16;4925820;29;19931;-69
2023/04/08 01:54:44;;;;;;;;;;;;;;;-142.25;100.00;58004.16;4911435;29;19922;-65
2023/04/08 01:57:11;;;;;;;;;;;;;;;-142.25;100.00;58004.16;4913454;29;20014;-65
2023/04/08 01:59:39;;;;;;;;;;;;;;;-142.25;100.00;58004.16;4914274;29;19930;-65
2023/04/08 02:02:05;;;;;;;;;;;;;;;-142.25;100.00;58004.16;4913824;29;19923;-64
2023/04/08 02:04:32;;;;;;;;;;;;;;;-142.25;100.00;58004.16;4913111;29;20442;-64
2023/04/08 02:06:58;;;;;;;;;;;;;;;-142.25;100.00;58004.16;4913856;29;19923;-65
2023/04/08 02:09:26;;;;;;;;;;;;;;;-142.25;100.00;58004.16;4912369;29;19981;-65
2023/04/08 02:11:52;;;;;;;;;;;;;;;-142.25;100.00;58004.16;4911008;29;19974;-64
2023/04/08 02:14:17;;;;;;;;;;;;;;;-142.25;100.00;58004.16;4920650;29;19927;-65
2023/04/08 02:17:13;;;;;;;;;;;;;;;-142.25;100.00;58004.16;4914319;29;19927;-65
2023/04/08 02:19:45;;;;;;;;;;;;;;;-142.25;100.00;58004.16;4912106;29;19923;-64
2023/04/08 02:22:16;;;;;;;;;;;;;;;-142.25;100.00;58004.16;4912166;29;19962;-64
2023/04/08 02:24:41;;;;;;;;;;;;;;;-142.25;100.00;58004.16;4912481;29;20330;-64
2023/04/08 02:27:08;;;;;;;;;;;;;;;-142.25;100.00;58004.16;4911293;29;20469;-63
2023/04/08 02:29:35;;;;;;;;;;;;;;;-142.25;100.00;58004.16;4911469;29;20363;-65
2023/04/08 02:32:02;;;;;;;;;;;;;;;-142.25;100.00;58004.16;4912560;29;19929;-65
2023/04/08 02:34:29;;;;;;;;;;;;;;;-142.25;100.00;58004.16;4912643;29;19927;-64
2023/04/08 02:36:54;;;;;;;;;;;;;;;-142.25;100.00;58004.16;4913405;29;19930;-64
2023/04/08 02:39:20;;;;;;;;;;;;;;;-142.25;100.00;58004.16;4911941;29;19927;-65
2023/04/08 02:41:48;;;;;;;;;;;;;;;-142.25;100.00;58004.16;4912000;29;19927;-65
2023/04/08 02:44:13;;;;;;;;;;;;;;;-142.25;100.00;58004.16;4908455;29;19927;-64
2023/04/08 02:46:39;;;;;;;;;;;;;;;-142.25;100.00;58004.16;4913009;29;20026;-65
2023/04/08 02:49:05;;;;;;;;;;;;;;;-142.25;100.00;58004.16;4911453;29;20458;-65
2023/04/08 02:51:32;;;;;;;;;;;;;;;-142.25;100.00;58004.16;4910757;29;19938;-65
2023/04/08 02:53:57;;;;;;;;;;;;;;;-142.25;100.00;58004.16;4912801;29;19938;-64
2023/04/08 02:56:22;;;;;;;;;;;;;;;-142.25;100.00;58004.16;4910515;29;19926;-64
2023/04/08 02:58:50;;;;;;;;;;;;;;;-142.25;100.00;58004.16;4910312;29;19927;-65
2023/04/08 03:01:16;;;;;;;;;;;;;;;-142.25;100.00;58004.16;4909355;29;20909;-65
2023/04/08 03:03:41;;;;;;;;;;;;;;;-142.25;100.00;58004.16;4914281;29;20021;-65
2023/04/08 03:06:07;;;;;;;;;;;;;;;-142.25;100.00;58004.16;4913530;29;20310;-65
2023/04/08 03:08:32;;;;;;;;;;;;;;;-142.25;100.00;58004.16;4912681;29;20441;-64
2023/04/08 03:10:58;;;;;;;;;;;;;;;-142.25;100.00;58004.16;4911971;29;19927;-65
2023/04/08 03:13:23;;;;;;;;;;;;;;;-142.25;100.00;58004.16;4911479;29;20560;-64
2023/04/08 03:15:49;;;;;;;;;;;;;;;-142.25;100.00;58004.16;4911575;29;20042;-65
2023/04/08 03:18:15;;;;;;;;;;;;;;;-142.25;100.00;58004.16;4912881;29;19934;-65
2023/04/08 03:20:40;;;;;;;;;;;;;;;-142.25;100.00;58004.16;4912058;29;19962;-64
2023/04/08 03:23:06;;;;;;;;;;;;;;;-142.25;100.00;58004.16;4914680;29;19923;-65
2023/04/08 03:25:31;;;;;;;;;;;;;;;-142.25;100.00;58004.16;4913166;29;20307;-64
2023/04/08 03:27:57;;;;;;;;;;;;;;;-142.25;100.00;58004.16;4915884;29;19937;-64
2023/04/08 03:30:22;;;;;;;;;;;;;;;-142.25;100.00;58004.16;4913633;29;20421;-64
2023/04/08 03:32:48;;;;;;;;;;;;;;;-142.25;100.00;58004.16;4914816;29;19930;-65
2023/04/08 03:35:13;;;;;;;;;;;;;;;-142.25;100.00;58004.16;4919912;29;20310;-65
2023/04/08 03:37:39;;;;;;;;;;;;;;;-142.25;100.00;58004.16;4914447;29;19930;-65
2023/04/08 03:40:05;;;;;;;;;;;;;;;-142.25;100.00;58004.16;4912974;29;20377;-64
2023/04/08 03:42:30;;;;;;;;;;;;;;;-142.25;100.00;58004.16;4912979;29;20382;-65
2023/04/08 03:44:57;;;;;;;;;;;;;;;-142.25;100.00;58004.16;4911156;29;20421;-66
2023/04/08 03:47:22;;;;;;;;;;;;;;;-142.25;100.00;58004.16;4917220;29;19922;-64
2023/04/08 03:49:48;;;;;;;;;;;;;;;-142.25;100.00;58004.16;4914041;29;20378;-65
2023/04/08 03:52:13;;;;;;;;;;;;;;;-142.25;100.00;58004.16;4913793;29;19983;-65
2023/04/08 03:54:39;;;;;;;;;;;;;;;-142.25;100.00;58004.16;4928560;29;19933;-65
2023/04/08 03:57:04;;;;;;;;;;;;;;;-142.25;100.00;58004.16;4913738;29;19933;-65
2023/04/08 03:59:32;;;;;;;;;;;;;;;-142.25;100.00;58004.16;4913503;29;19934;-64
2023/04/08 04:01:58;;;;;;;;;;;;;;;-142.25;100.00;58004.16;4913270;29;20403;-64
2023/04/08 04:04:23;;;;;;;;;;;;;;;-142.25;100.00;58004.16;4911708;29;20061;-64
2023/04/08 04:06:49;;;;;;;;;;;;;;;-142.25;100.00;58004.16;4913991;29;19927;-65
2023/04/08 04:09:15;;;;;;;;;;;;;;;-142.25;100.00;58004.16;4912480;29;19949;-65
2023/04/08 04:11:41;;;;;;;;;;;;;;;-142.25;100.00;58004.16;4915442;29;20393;-64
2023/04/08 04:14:06;;;;;;;;;;;;;;;-142.25;100.00;58004.16;4915572;29;19930;-64
2023/04/08 04:16:32;;;;;;;;;;;;;;;-142.25;100.00;58004.16;4922294;29;19981;-65
2023/04/08 04:18:57;;;;;;;;;;;;;;;-142.25;100.00;58004.16;4917284;29;20362;-64
2023/04/08 04:21:23;;;;;;;;;;;;;;;-142.25;100.00;58004.16;4916941;29;19926;-64
2023/04/08 04:23:48;;;;;;;;;;;;;;;-142.25;100.00;58004.16;4914345;29;19927;-65
2023/04/08 04:26:14;;;;;;;;;;;;;;;-142.25;100.00;58004.16;4913229;29;20544;-65
2023/04/08 04:28:40;;;;;;;;;;;;;;;-142.25;100.00;58004.16;4914595;29;19925;-65
2023/04/08 04:31:05;;;;;;;;;;;;;;;-142.25;100.00;58004.16;4914975;29;19923;-65
2023/04/08 04:33:31;;;;;;;;;;;;;;;-142.25;100.00;58004.16;4913072;29;20286;-65
2023/04/08 04:35:56;;;;;;;;;;;;;;;-142.25;100.00;58004.16;4913409;29;20383;-65
2023/04/08 04:38:22;;;;;;;;;;;;;;;-142.25;100.00;58004.16;4913619;29;19978;-65
2023/04/08 04:40:47;;;;;;;;;;;;;;;-142.25;100.00;58004.16;4919813;29;20409;-65
2023/04/08 04:43:13;;;;;;;;;;;;;;;-142.25;100.00;58004.16;4912592;29;20001;-65
2023/04/08 04:45:38;;;;;;;;;;;;;;;-142.25;100.00;58004.16;4912792;29;20507;-64
2023/04/08 04:48:03;;;;;;;;;;;;;;;-142.25;100.00;58004.16;4914251;29;19927;-65
2023/04/08 04:50:29;;;;;;;;;;;;;;;-142.25;100.00;58004.16;4914505;29;20391;-65
2023/04/08 04:52:55;;;;;;;;;;;;;;;-142.25;100.00;58004.16;4912123;29;19993;-65
2023/04/08 04:55:21;;;;;;;;;;;;;;;-142.25;100.00;58004.16;4914309;29;19974;-65
2023/04/08 04:57:47;;;;;;;;;;;;;;;-142.25;100.00;58004.16;4919820;29;20166;-65
2023/04/08 05:00:13;;;;;;;;;;;;;;;-142.25;100.00;58004.16;4914826;29;20470;-66
2023/04/08 05:02:38;;;;;;;;;;;;;;;-142.25;100.00;58004.16;4913835;29;20393;-65
2023/04/08 05:05:04;;;;;;;;;;;;;;;-142.25;100.00;58004.16;4914223;29;20030;-66
2023/04/08 05:07:29;;;;;;;;;;;;;;;-142.25;100.00;58004.16;4911045;29;19927;-66
2023/04/08 05:09:55;;;;;;;;;;;;;;;-142.25;100.00;58004.16;4912929;29;19926;-66
2023/04/08 05:12:20;;;;;;;;;;;;;;;-142.25;100.00;58004.16;4915232;29;19926;-67
2023/04/08 05:14:46;;;;;;;;;;;;;;;-142.25;100.00;58004.16;4914390;29;19923;-66
2023/04/08 05:17:11;;;;;;;;;;;;;;;-142.25;100.00;58004.16;4913763;29;20279;-66
2023/04/08 05:19:37;;;;;;;;;;;;;;;-142.25;100.00;58004.16;4914701;29;19926;-66
2023/04/08 05:22:02;;;;;;;;;;;;;;;-142.25;100.00;58004.16;4915297;29;20497;-63
2023/04/08 05:24:28;;;;;;;;;;;;;;;-142.25;100.00;58004.16;4914741;29;20395;-61
2023/04/08 05:26:53;;;;;;;;;;;;;;;-142.25;100.00;58004.16;4913282;29;20592;-63
2023/04/08 05:29:20;;;;;;;;;;;;;;;-142.25;100.00;58004.16;4914074;29;19926;-62
2023/04/08 05:31:46;;;;;;;;;;;;;;;-142.25;100.00;58004.16;4914550;29;19922;-61
2023/04/08 05:34:12;;;;;;;;;;;;;;;-142.25;100.00;58004.16;4912203;29;20046;-62
2023/04/08 05:36:37;;;;;;;;;;;;;;;-142.25;100.00;58004.16;4915810;29;19926;-62
2023/04/08 05:39:03;;;;;;;;;;;;;;;-142.25;100.00;58004.16;4913121;29;19926;-62
2023/04/08 05:41:28;;;;;;;;;;;;;;;-142.25;100.00;58004.16;4912145;29;20315;-62
2023/04/08 05:43:54;;;;;;;;;;;;;;;-142.25;100.00;58004.16;4914517;29;20246;-62
2023/04/08 05:46:20;;;;;;;;;;;;;;;-142.25;100.00;58004.16;4913102;29;19975;-62
2023/04/08 05:48:45;;;;;;;;;;;;;;;-142.25;100.00;58004.16;4913805;29;19926;-59
2023/04/08 05:51:14;;;;;;;;;;;;;;;-142.25;100.00;58004.16;4912974;29;19938;-60
2023/04/08 05:53:40;;;;;;;;;;;;;;;-142.25;100.00;58004.16;4910782;29;19927;-60
2023/04/08 05:56:06;;;;;;;;;;;;;;;-142.25;100.00;58004.16;4912642;29;19929;-60
2023/04/08 05:58:31;;;;;;;;;;;;;;;-142.25;100.00;58004.16;4913896;29;20404;-60
2023/04/08 06:00:57;;;;;;;;;;;;;;;-142.25;100.00;58004.16;4914309;29;19927;-60
2023/04/08 06:03:22;;;;;;;;;;;;;;;-142.25;100.00;58004.16;4913492;29;19989;-61
2023/04/08 06:05:48;;;;;;;;;;;;;;;-142.25;100.00;58004.16;4913727;29;19993;-60
2023/04/08 06:08:13;;;;;;;;;;;;;;;-142.25;100.00;58004.16;4912609;29;19966;-60
2023/04/08 06:10:39;;;;;;;;;;;;;;;-142.25;100.00;58004.16;4911346;29;19927;-59
2023/04/08 06:13:04;;;;;;;;;;;;;;;-142.25;100.00;58004.16;4913991;29;19923;-59
2023/04/08 06:15:31;;;;;;;;;;;;;;;-142.25;100.00;58004.16;4914038;29;19923;-60
2023/04/08 06:17:56;;;;;;;;;;;;;;;-142.25;100.00;58004.16;4911530;29;19927;-60
2023/04/08 06:20:22;;;;;;;;;;;;;;;-142.25;100.00;58004.16;4913922;29;19923;-60
2023/04/08 06:22:47;;;;;;;;;;;;;;;-142.25;100.00;58004.16;4912281;29;19997;-60
2023/04/08 06:25:13;;;;;;;;;;;;;;;-142.25;100.00;58004.16;4911152;29;20019;-60
2023/04/08 06:27:39;;;;;;;;;;;;;;;-142.25;100.00;58004.16;4912023;29;20335;-60
2023/04/08 06:30:05;;;;;;;;;;;;;;;-142.25;100.00;58004.16;4913871;29;20037;-60
2023/04/08 06:32:30;;;;;;;;;;;;;;;-142.25;100.00;58004.16;4910734;29;19926;-60
2023/04/08 06:34:56;;;;;;;;;;;;;;;-142.25;100.00;58004.16;4912206;29;19931;-62
2023/04/08 06:37:21;;;;;;;;;;;;;;;-142.25;100.00;58004.16;4912416;29;19923;-60
2023/04/08 06:39:47;;;;;;;;;;;;;;;-142.25;100.00;58004.16;4910962;29;20373;-60
2023/04/08 06:42:12;;;;;;;;;;;;;;;-142.25;100.00;58004.16;4912294;29;19930;-60
2023/04/08 06:44:58;;;;;;;;;;;;;;;-142.25;100.00;58004.16;4912866;29;19947;-61
2023/04/08 06:47:23;;;;;;;;;;;;;;;-142.25;100.00;58004.16;4911305;29;19923;-61
2023/04/08 06:49:49;;;;;;;;;;;;;;;-142.25;100.00;58004.16;4910302;29;20736;-60
2023/04/08 06:52:14;;;;;;;;;;;;;;;-142.25;100.00;58004.16;4911777;29;19927;-60
2023/04/08 06:54:40;;;;;;;;;;;;;;;-142.25;100.00;58004.16;4911328;29;19934;-60
2023/04/08 06:57:05;;;;;;;;;;;;;;;-142.25;100.00;58004.16;4912777;29;19974;-59
2023/04/08 06:59:31;;;;;;;;;;;;;;;-142.25;100.00;58004.16;4911812;29;19927;-59
2023/04/08 07:01:56;;;;;;;;;;;;;;;-142.25;100.00;58004.16;4912981;29;20328;-60
2023/04/08 07:04:22;;;;;;;;;;;;;;;-142.25;100.00;58004.16;4912035;29;19973;-60
2023/04/08 07:06:47;;;;;;;;;;;;;;;-142.25;100.00;58004.16;4912656;29;20288;-59
2023/04/08 07:09:13;;;;;;;;;;;;;;;-142.25;100.00;58004.16;4910651;29;19922;-59
2023/04/08 07:11:38;;;;;;;;;;;;;;;-142.25;100.00;58004.16;4911387;29;19927;-61
2023/04/08 07:14:04;;;;;;;;;;;;;;;-142.25;100.00;58004.16;4920222;29;20602;-61
2023/04/08 07:16:29;;;;;;;;;;;;;;;-142.25;100.00;58004.16;4912969;29;20397;-61
2023/04/08 07:18:55;;;;;;;;;;;;;;;-142.25;100.00;58004.16;4910766;29;19919;-62
2023/04/08 07:21:21;;;;;;;;;;;;;;;-142.25;100.00;58004.16;4913739;29;19922;-62
2023/04/08 07:23:46;;;;;;;;;;;;;;;-142.25;100.00;58004.16;4911120;29;20386;-61
2023/04/08 07:26:12;;;;;;;;;;;;;;;-142.25;100.00;58004.16;4916619;29;19982;-61
2023/04/08 07:28:37;;;;;;;;;;;;;;;-142.25;100.00;58004.16;4911485;29;19970;-62
2023/04/08 07:31:09;;;;;;;;;;;;;;;-142.25;100.00;58004.16;4911543;29;20511;-62
2023/04/08 07:33:34;;;;;;;;;;;;;;;-142.25;100.00;58004.16;4912053;29;19923;-61
2023/04/08 07:36:00;;;;;;;;;;;;;;;-142.25;100.00;58004.16;4912040;29;19974;-61
2023/04/08 07:38:26;;;;;;;;;;;;;;;-142.25;100.00;58004.16;4909463;29;19938;-61
2023/04/08 07:40:52;;;;;;;;;;;;;;;-142.25;100.00;58004.16;4912504;29;19933;-62
2023/04/08 07:43:17;;;;;;;;;;;;;;;-142.25;100.00;58004.16;4910724;29;20631;-61
2023/04/08 07:45:43;;;;;;;;;;;;;;;-142.25;100.00;58004.16;4912431;29;19923;-61
2023/04/08 07:48:09;;;;;;;;;;;;;;;-142.25;100.00;58004.16;4913878;29;20021;-61
2023/04/08 07:50:37;;;;;;;;;;;;;;;-142.25;100.00;58004.16;4914993;29;19923;-61
2023/04/08 07:53:03;;;;;;;;;;;;;;;-142.25;100.00;58004.16;4915839;29;19922;-60
2023/04/08 07:55:32;;;;;;;;;;;;;;;-142.25;100.00;58004.16;4916215;29;19977;-60
2023/04/08 07:57:57;;;;;;;;;;;;;;;-142.25;100.00;58004.16;4914717;29;20009;-57
2023/04/08 08:00:24;;;;;;;;;;;;;;;-142.25;100.00;58004.16;4912166;29;19970;-60
2023/04/08 08:02:49;;;;;;;;;;;;;;;-142.25;100.00;58004.16;4913874;29;20005;-61
2023/04/08 08:05:15;;;;;;;;;;;;;;;-142.25;100.00;58004.16;4912831;29;19923;-60
2023/04/08 08:07:41;;;;;;;;;;;;;;;-142.25;100.00;58004.16;4915396;29;20350;-59
2023/04/08 08:10:06;;;;;;;;;;;;;;;-142.25;100.00;58004.16;4913598;29;20499;-61
2023/04/08 08:12:32;;;;;;;;;;;;;;;-142.25;100.00;58004.16;4914380;29;19978;-60
2023/04/08 08:14:58;;;;;;;;;;;;;;;-142.25;100.00;58004.16;4913449;29;20407;-60
2023/04/08 08:17:23;;;;;;;;;;;;;;;-142.25;100.00;58004.16;4910485;29;19938;-60
2023/04/08 08:19:49;;;;;;;;;;;;;;;-142.25;100.00;58004.16;4907320;29;20071;-61
2023/04/08 08:22:15;;;;;;;;;;;;;;;-142.25;100.00;58004.16;4914924;28;19927;-60
2023/04/08 08:24:41;;;;;;;;;;;;;;;-142.25;100.00;58004.16;4914686;29;19931;-60
2023/04/08 08:27:10;;;;;;;;;;;;;;;-142.25;100.00;58004.16;4914711;29;19930;-60
2023/04/08 08:29:36;;;;;;;;;;;;;;;-142.25;100.00;58004.16;4913294;29;19923;-60
2023/04/08 08:32:02;;;;;;;;;;;;;;;-142.25;100.00;58004.16;4908295;29;19963;-60
2023/04/08 08:34:28;;;;;;;;;;;;;;;-142.25;100.00;58004.16;4927695;29;19969;-60
2023/04/08 08:36:53;;;;;;;;;;;;;;;-142.25;100.00;58004.16;4915795;29;20785;-60
2023/04/08 08:39:19;;;;;;;;;;;;;;;-142.25;100.00;58004.16;4916362;29;20397;-61
2023/04/08 08:41:44;;;;;;;;;;;;;;;-142.25;100.00;58004.16;4915806;29;19923;-61
2023/04/08 08:44:10;;;;;;;;;;;;;;;-142.25;100.00;58004.16;4913768;29;19962;-67
2023/04/08 08:46:41;;;;;;;;;;;;;;;-142.25;100.00;58004.16;4912353;29;20045;-66
2023/04/08 08:49:06;;;;;;;;;;;;;;;-142.25;100.00;58004.16;4915623;29;20037;-66
2023/04/08 08:51:32;;;;;;;;;;;;;;;-142.25;100.00;58004.16;4915751;29;20033;-66
2023/04/08 08:54:00;;;;;;;;;;;;;;;-142.25;100.00;58004.16;4913912;29;20472;-65
2023/04/08 08:56:26;;;;;;;;;;;;;;;-142.25;100.00;58004.16;4916467;29;20400;-65
2023/04/08 08:58:51;;;;;;;;;;;;;;;-142.25;100.00;58004.16;4913545;29;20027;-66
2023/04/08 09:01:30;;;;;;;;;;;;;;;-142.25;100.00;58004.16;4915122;29;20189;-66
2023/04/08 09:04:15;;;;;;;;;;;;;;;-142.25;100.00;58004.16;4913644;29;20366;-68
2023/04/08 09:06:41;;;;;;;;;;;;;;;-142.25;100.00;58004.16;4912120;29;19919;-68
2023/04/08 09:09:09;;;;;;;;;;;;;;;-142.25;100.00;58004.16;4914397;29;19931;-68
2023/04/08 09:11:37;;;;;;;;;;;;;;;-142.25;100.00;58004.16;4916248;29;20410;-68
2023/04/08 09:14:02;;;;;;;;;;;;;;;-142.25;100.00;58004.16;4915736;29;19949;-69
2023/04/08 09:16:29;;;;;;;;;;;;;;;-142.25;100.00;58004.16;4912425;28;19931;-67
2023/04/08 09:19:07;;;;;;;;;;;;;;;-142.25;100.00;58004.16;4912841;29;19923;-69
2023/04/08 09:21:33;;;;;;;;;;;;;;;-142.25;100.00;58004.16;4917230;29;19977;-68
2023/04/08 09:23:59;;;;;;;;;;;;;;;-142.25;100.00;58004.16;4914355;29;20029;-68
2023/04/08 09:26:25;;;;;;;;;;;;;;;-142.25;100.00;58004.16;4915631;29;19934;-68
2023/04/08 09:29:02;;;;;;;;;;;;;;;-142.25;100.00;58004.16;4915906;29;19968;-69
2023/04/08 09:31:28;;;;;;;;;;;;;;;-142.25;100.00;58004.16;4914431;29;19930;-70
2023/04/08 09:33:55;;;;;;;;;;;;;;;-142.25;100.00;58004.16;4916723;29;20392;-65
2023/04/08 09:36:21;;;;;;;;;;;;;;;-142.25;100.00;58004.16;4916726;29;19930;-62
2023/04/08 09:38:46;;;;;;;;;;;;;;;-142.25;100.00;58004.16;4911724;29;19923;-59
2023/04/08 09:41:14;;;;;;;;;;;;;;;-142.25;100.00;58004.16;4911029;29;20346;-60
2023/04/08 09:43:42;;;;;;;;;;;;;;;-142.25;100.00;58004.16;4915030;29;20009;-60
2023/04/08 09:46:10;;;;;;;;;;;;;;;-142.25;100.00;58004.16;4914199;29;19957;-60
2023/04/08 09:48:41;;;;;;;;;;;;;;;-142.25;100.00;58004.16;4902144;29;20320;-62
2023/04/08 09:51:11;;;;;;;;;;;;;;;-142.25;100.00;58004.16;4911939;29;20477;-62
2023/04/08 09:53:37;;;;;;;;;;;;;;;-142.25;100.00;58004.16;4910053;29;20469;-64
2023/04/08 09:56:06;;;;;;;;;;;;;;;-142.25;100.00;58004.16;4910307;29;20240;-63
2023/04/08 09:58:36;;;;;;;;;;;;;;;-142.25;100.00;58004.16;4912808;29;19923;-63
2023/04/08 10:01:02;;;;;;;;;;;;;;;-142.25;100.00;58004.16;4912514;29;20378;-64
2023/04/08 10:03:27;;;;;;;;;;;;;;;-142.25;100.00;58004.16;4913125;29;19930;-62
2023/04/08 10:05:55;;;;;;;;;;;;;;;-142.25;100.00;58004.16;4912014;28;20426;-61
2023/04/08 10:08:21;;;;;;;;;;;;;;;-142.25;100.00;58004.16;4911864;29;19923;-61
2023/04/08 10:10:50;;;;;;;;;;;;;;;-142.25;100.00;58004.16;4912495;29;19950;-61
2023/04/08 10:13:15;;;;;;;;;;;;;;;-142.25;100.00;58004.16;4911942;29;19935;-65
2023/04/08 10:15:42;;;;;;;;;;;;;;;-142.25;100.00;58004.16;4912878;29;19927;-64
2023/04/08 10:18:10;;;;;;;;;;;;;;;-142.25;100.00;58004.16;4911624;29;19938;-62
2023/04/08 10:20:36;;;;;;;;;;;;;;;-142.25;100.00;58004.16;4911679;29;19927;-62
2023/04/08 10:23:02;;;;;;;;;;;;;;;-142.25;100.00;58004.16;4912322;29;19922;-64
2023/04/08 10:25:32;;;;;;;;;;;;;;;-142.25;100.00;58004.16;4912364;29;19922;-60
2023/04/08 10:27:58;;;;;;;;;;;;;;;-142.25;100.00;58004.16;4913111;29;19931;-63
2023/04/08 10:30:26;;;;;;;;;;;;;;;-142.25;100.00;58004.16;4912362;29;19923;-63
2023/04/08 10:32:55;;;;;;;;;;;;;;;-142.25;100.00;58004.16;4911896;28;20318;-64
2023/04/08 10:35:40;;;;;;;;;;;;;;;-142.25;100.00;58004.16;4912770;29;19922;-63
2023/04/08 10:38:06;;;;;;;;;;;;;;;-142.25;100.00;58004.16;4912408;29;19929;-64
2023/04/08 10:40:37;;;;;;;;;;;;;;;-142.25;100.00;58004.16;4926893;29;19931;-64
2023/04/08 10:43:04;;;;;;;;;;;;;;;-142.25;100.00;58004.16;4910704;29;19929;-63
2023/04/08 10:45:29;;;;;;;;;;;;;;;-142.25;100.00;58004.16;4911799;29;19927;-63
2023/04/08 10:47:56;;;;;;;;;;;;;;;-142.25;100.00;58004.16;4911642;29;19934;-66
2023/04/08 10:50:22;;;;;;;;;;;;;;;-142.25;100.00;58004.16;4907204;28;19931;-63
2023/04/08 10:52:52;;;;;;;;;;;;;;;-142.25;100.00;58004.16;4911775;29;19942;-62
2023/04/08 10:55:24;;;;;;;;;;;;;;;-142.25;100.00;58004.16;4915208;29;20034;-62
2023/04/08 10:57:53;;;;;;;;;;;;;;;-142.25;100.00;58004.16;4909829;29;19927;-60
2023/04/08 11:00:30;;;;;;;;;;;;;;;-142.25;100.00;58004.16;4910078;29;19926;-60
2023/04/08 11:02:59;;;;;;;;;;;;;;;-142.25;100.00;58004.16;4911883;29;19923;-60
2023/04/08 11:05:26;;;;;;;;;;;;;;;-142.25;100.00;58004.16;4911541;29;20483;-63
2023/04/08 11:07:51;;;;;;;;;;;;;;;-142.25;100.00;58004.16;4910580;29;19942;-62
2023/04/08 11:10:17;;;;;;;;;;;;;;;-142.25;100.00;58004.16;4910946;29;19970;-61
2023/04/08 11:12:43;;;;;;;;;;;;;;;-142.25;100.00;58004.16;4911013;29;20026;-63
2023/04/08 11:15:09;;;;;;;;;;;;;;;-142.25;100.00;58004.16;4911318;29;20404;-62
2023/04/08 11:17:35;;;;;;;;;;;;;;;-142.25;100.00;58004.16;4912573;29;19998;-63
2023/04/08 11:20:04;;;;;;;;;;;;;;;-142.25;100.00;58004.16;4912423;29;20346;-63
2023/04/08 11:22:32;;;;;;;;;;;;;;;-142.25;100.00;58004.16;4916874;29;20374;-62
2023/04/08 11:24:58;;;;;;;;;;;;;;;-142.25;100.00;58004.16;4915531;29;19930;-62
2023/04/08 11:27:24;;;;;;;;;;;;;;;-142.25;100.00;58004.16;4915805;29;19930;-61
2023/04/08 11:29:52;;;;;;;;;;;;;;;-142.25;100.00;58004.16;4916870;29;20358;-62
2023/04/08 11:32:18;;;;;;;;;;;;;;;-142.25;100.00;58004.16;4916753;29;20409;-62
2023/04/08 11:34:46;;;;;;;;;;;;;;;-142.25;100.00;58004.16;4912321;29;20033;-64
2023/04/08 11:37:11;;;;;;;;;;;;;;;-142.25;100.00;58004.16;4916171;29;20003;-62
2023/04/08 11:39:43;;;;;;;;;;;;;;;-142.25;100.00;58004.16;4928757;29;19949;-62
2023/04/08 11:42:09;;;;;;;;;;;;;;;-142.25;100.00;58004.16;4915206;29;19922;-62
2023/04/08 11:44:35;;;;;;;;;;;;;;;-142.25;100.00;58004.16;4915510;29;20403;-62
2023/04/08 11:47:03;;;;;;;;;;;;;;;-142.25;100.00;58004.16;4915211;28;19928;-62
2023/04/08 11:49:42;;;;;;;;;;;;;;;-142.25;100.00;58004.16;4914754;29;19934;-63
2023/04/08 11:52:08;;;;;;;;;;;;;;;-142.25;100.00;58004.16;4915718;29;20300;-60
2023/04/08 11:54:33;;;;;;;;;;;;;;;-142.25;100.00;58004.16;4915842;29;19942;-61
2023/04/08 11:56:59;;;;;;;;;;;;;;;-142.25;100.00;58004.16;4914623;29;19974;-63
2023/04/08 11:59:24;;;;;;;;;;;;;;;-142.25;100.00;58004.16;4916333;29;20017;-63
2023/04/08 12:01:50;;;;;;;;;;;;;;;-142.25;100.00;58004.16;4916071;29;20483;-62
2023/04/08 12:04:16;;;;;;;;;;;;;;;-142.25;100.00;58004.16;4914249;29;20018;-61
2023/04/08 12:06:45;;;;;;;;;;;;;;;-142.25;100.00;58004.16;4914946;29;20017;-61
2023/04/08 12:09:11;;;;;;;;;;;;;;;-142.25;100.00;58004.16;4931571;29;20562;-62
2023/04/08 12:11:37;;;;;;;;;;;;;;;-142.25;100.00;58004.16;4915580;29;20034;-63
2023/04/08 12:14:02;;;;;;;;;;;;;;;-142.25;100.00;58004.16;4914174;29;19923;-60
2023/04/08 12:16:28;;;;;;;;;;;;;;;-142.25;100.00;58004.16;4914932;29;19922;-61